UAL1266 KCOS-KDEN
Flight info
| Callsign | UAL1266 |
|---|---|
| Flight time | 0h 18m |
| Altitude | 13000 |
| Route | ADANE V389 LUFSE/N0372F150 JEFEL/N0365F140 FQF |
| Aircraft | A320/M-SDE3FGHIRWY/LB1 |
Departure
| Time | 2026-04-18 04:50 |
|---|---|
| Airport | City of Colorado Springs Municipal Airport (KCOS) |
Arrival
| Time | 2026-04-18 05:09 |
|---|---|
| Airport | Denver International Airport (KDEN) |
| Time | Latitude | Longitude | Altitude | Speed | Heading |
|---|---|---|---|---|---|
| 2026-04-18 04:31 | 38.79944 | -104.70156 | 6145 ft | 0 kts | 120° |
| 2026-04-18 04:37 | 38.79967 | -104.70200 | 6146 ft | 383 kts | 24° |
| 2026-04-18 04:38 | 38.79973 | -104.70248 | 6145 ft | 0 kts | 24° |
| 2026-04-18 04:43 | 38.79993 | -104.70229 | 6146 ft | 8 kts | 44° |
| 2026-04-18 04:43 | 38.80035 | -104.70172 | 6147 ft | 9 kts | 48° |
| 2026-04-18 04:44 | 38.80085 | -104.70106 | 6148 ft | 11 kts | 38° |
| 2026-04-18 04:44 | 38.80162 | -104.70089 | 6149 ft | 12 kts | 356° |
| 2026-04-18 04:44 | 38.80250 | -104.70087 | 6151 ft | 13 kts | 5° |
| 2026-04-18 04:44 | 38.80279 | -104.70010 | 6151 ft | 11 kts | 91° |
| 2026-04-18 04:45 | 38.80278 | -104.69902 | 6151 ft | 13 kts | 90° |
| 2026-04-18 04:45 | 38.80278 | -104.69771 | 6151 ft | 16 kts | 89° |
| 2026-04-18 04:45 | 38.80278 | -104.69618 | 6151 ft | 19 kts | 90° |
| 2026-04-18 04:45 | 38.80279 | -104.69441 | 6151 ft | 21 kts | 90° |
| 2026-04-18 04:46 | 38.80278 | -104.69243 | 6151 ft | 24 kts | 90° |
| 2026-04-18 04:46 | 38.80278 | -104.69093 | 6151 ft | 15 kts | 89° |
| 2026-04-18 04:46 | 38.80280 | -104.68953 | 6151 ft | 17 kts | 89° |
| 2026-04-18 04:46 | 38.80305 | -104.68802 | 6154 ft | 17 kts | 38° |
| 2026-04-18 04:47 | 38.80424 | -104.68782 | 6154 ft | 18 kts | 360° |
| 2026-04-18 04:47 | 38.80553 | -104.68783 | 6156 ft | 19 kts | 359° |
| 2026-04-18 04:47 | 38.80691 | -104.68785 | 6158 ft | 20 kts | 359° |
| 2026-04-18 04:47 | 38.80836 | -104.68789 | 6160 ft | 22 kts | 359° |
| 2026-04-18 04:48 | 38.80990 | -104.68789 | 6163 ft | 23 kts | 7° |
| 2026-04-18 04:48 | 38.81151 | -104.68785 | 6166 ft | 24 kts | 356° |
| 2026-04-18 04:48 | 38.81319 | -104.68784 | 6172 ft | 25 kts | 1° |
| 2026-04-18 04:48 | 38.81494 | -104.68785 | 6174 ft | 26 kts | 359° |
| 2026-04-18 04:49 | 38.81601 | -104.68688 | 6173 ft | 20 kts | 82° |
| 2026-04-18 04:49 | 38.81517 | -104.68573 | 6174 ft | 21 kts | 174° |
| 2026-04-18 04:49 | 38.81476 | -104.68574 | 6174 ft | 2 kts | 182° |
| 2026-04-18 04:49 | 38.81413 | -104.68576 | 6171 ft | 31 kts | 181° |
| 2026-04-18 04:50 | 38.80910 | -104.68580 | 6162 ft | 112 kts | 180° |
| 2026-04-18 04:50 | 38.79917 | -104.68596 | 6148 ft | 172 kts | 180° |
| 2026-04-18 04:50 | 38.78662 | -104.68553 | 6693 ft | 184 kts | 173° |
| 2026-04-18 04:50 | 38.77451 | -104.68161 | 7558 ft | 179 kts | 160° |
| 2026-04-18 04:51 | 38.76256 | -104.67624 | 8027 ft | 185 kts | 160° |
| 2026-04-18 04:51 | 38.74974 | -104.66997 | 8208 ft | 209 kts | 158° |
| 2026-04-18 04:51 | 38.73567 | -104.66254 | 8554 ft | 225 kts | 158° |
| 2026-04-18 04:51 | 38.72196 | -104.65222 | 8964 ft | 240 kts | 134° |
| 2026-04-18 04:52 | 38.71392 | -104.63295 | 9256 ft | 259 kts | 98° |
| 2026-04-18 04:52 | 38.71574 | -104.60957 | 9574 ft | 277 kts | 63° |
| 2026-04-18 04:52 | 38.72786 | -104.59022 | 10115 ft | 286 kts | 38° |
| 2026-04-18 04:52 | 38.74387 | -104.57335 | 10398 ft | 310 kts | 36° |
| 2026-04-18 04:53 | 38.76142 | -104.55571 | 10625 ft | 333 kts | 35° |
| 2026-04-18 04:53 | 38.78035 | -104.53691 | 10794 ft | 356 kts | 36° |
| 2026-04-18 04:53 | 38.80030 | -104.51699 | 11199 ft | 368 kts | 36° |
| 2026-04-18 04:53 | 38.82034 | -104.49679 | 11791 ft | 375 kts | 36° |
| 2026-04-18 04:54 | 38.84089 | -104.47593 | 12411 ft | 381 kts | 36° |
| 2026-04-18 04:54 | 38.86183 | -104.45455 | 12882 ft | 386 kts | 36° |
| 2026-04-18 04:54 | 38.88320 | -104.43344 | 12998 ft | 393 kts | 32° |
| 2026-04-18 04:54 | 38.90744 | -104.41576 | 13022 ft | 406 kts | 22° |
| 2026-04-18 04:55 | 38.93400 | -104.40343 | 13016 ft | 405 kts | 11° |
| 2026-04-18 04:55 | 38.96156 | -104.39707 | 13012 ft | 401 kts | 1° |
| 2026-04-18 04:55 | 38.98942 | -104.39542 | 13014 ft | 400 kts | 358° |
| 2026-04-18 04:56 | 39.04504 | -104.39278 | 13014 ft | 400 kts | 359° |
| 2026-04-18 04:56 | 39.07288 | -104.39136 | 13011 ft | 400 kts | 359° |
| 2026-04-18 04:56 | 39.10074 | -104.38994 | 13016 ft | 401 kts | 359° |
| 2026-04-18 04:56 | 39.12816 | -104.38854 | 13014 ft | 399 kts | 359° |
| 2026-04-18 04:57 | 39.15565 | -104.38714 | 13009 ft | 385 kts | 359° |
| 2026-04-18 04:57 | 39.18142 | -104.38496 | 13004 ft | 355 kts | 4° |
| 2026-04-18 04:57 | 39.20449 | -104.37862 | 13010 ft | 324 kts | 12° |
| 2026-04-18 04:57 | 39.22522 | -104.37158 | 13013 ft | 290 kts | 0° |
| 2026-04-18 04:58 | 39.24379 | -104.37453 | 13014 ft | 253 kts | 333° |
| 2026-04-18 04:58 | 39.25692 | -104.38707 | 13015 ft | 228 kts | 304° |
| 2026-04-18 04:58 | 39.26538 | -104.40437 | 13022 ft | 228 kts | 298° |
| 2026-04-18 04:58 | 39.27295 | -104.42237 | 13024 ft | 229 kts | 297° |
| 2026-04-18 04:59 | 39.28031 | -104.44025 | 13017 ft | 228 kts | 297° |
| 2026-04-18 04:59 | 39.28772 | -104.45833 | 13012 ft | 228 kts | 297° |
| 2026-04-18 04:59 | 39.29512 | -104.47642 | 13019 ft | 228 kts | 297° |
| 2026-04-18 04:59 | 39.30252 | -104.49450 | 13018 ft | 228 kts | 297° |
| 2026-04-18 05:00 | 39.30992 | -104.51260 | 13027 ft | 233 kts | 297° |
| 2026-04-18 05:00 | 39.31802 | -104.53251 | 13023 ft | 267 kts | 297° |
| 2026-04-18 05:00 | 39.32716 | -104.55503 | 13017 ft | 298 kts | 297° |
| 2026-04-18 05:00 | 39.33663 | -104.57848 | 13014 ft | 287 kts | 297° |
| 2026-04-18 05:01 | 39.34591 | -104.60219 | 13022 ft | 303 kts | 297° |
| 2026-04-18 05:01 | 39.35703 | -104.62605 | 12991 ft | 317 kts | 305° |
| 2026-04-18 05:01 | 39.37112 | -104.64828 | 13237 ft | 321 kts | 313° |
| 2026-04-18 05:01 | 39.38772 | -104.66757 | 13517 ft | 324 kts | 324° |
| 2026-04-18 05:02 | 39.40721 | -104.68252 | 13763 ft | 327 kts | 324° |
| 2026-04-18 05:02 | 39.42763 | -104.69659 | 13544 ft | 342 kts | 339° |
| 2026-04-18 05:02 | 39.45102 | -104.69935 | 13794 ft | 349 kts | 4° |
| 2026-04-18 05:02 | 39.47484 | -104.68950 | 13069 ft | 367 kts | 25° |
| 2026-04-18 05:03 | 39.49502 | -104.67217 | 12692 ft | 327 kts | 30° |
| 2026-04-18 05:03 | 39.51347 | -104.65744 | 12237 ft | 293 kts | 15° |
| 2026-04-18 05:03 | 39.53169 | -104.65302 | 12042 ft | 249 kts | 352° |
| 2026-04-18 05:03 | 39.54803 | -104.65629 | 11266 ft | 231 kts | 345° |
| 2026-04-18 05:04 | 39.56332 | -104.66015 | 10600 ft | 217 kts | 347° |
| 2026-04-18 05:04 | 39.57798 | -104.66271 | 10073 ft | 214 kts | 351° |
| 2026-04-18 05:04 | 39.59429 | -104.66376 | 9677 ft | 252 kts | 355° |
| 2026-04-18 05:04 | 39.61186 | -104.66367 | 9627 ft | 237 kts | 358° |
| 2026-04-18 05:05 | 39.62668 | -104.66245 | 9413 ft | 202 kts | 1° |
| 2026-04-18 05:05 | 39.64130 | -104.66046 | 8956 ft | 219 kts | 2° |
| 2026-04-18 05:05 | 39.65667 | -104.65918 | 8659 ft | 220 kts | 356° |
| 2026-04-18 05:05 | 39.67199 | -104.66130 | 8248 ft | 227 kts | 350° |
| 2026-04-18 05:06 | 39.68849 | -104.66351 | 7653 ft | 248 kts | 354° |
| 2026-04-18 05:06 | 39.70490 | -104.66398 | 7310 ft | 232 kts | 359° |
| 2026-04-18 05:06 | 39.72051 | -104.66273 | 7068 ft | 216 kts | 1° |
| 2026-04-18 05:06 | 39.73514 | -104.66161 | 6845 ft | 209 kts | 360° |
| 2026-04-18 05:07 | 39.74982 | -104.66112 | 6576 ft | 212 kts | 358° |
| 2026-04-18 05:07 | 39.76433 | -104.66104 | 6537 ft | 205 kts | 358° |
| 2026-04-18 05:07 | 39.77853 | -104.66094 | 6338 ft | 206 kts | 359° |
| 2026-04-18 05:07 | 39.79282 | -104.66062 | 6008 ft | 200 kts | 359° |
| 2026-04-18 05:08 | 39.80625 | -104.66059 | 5793 ft | 188 kts | 359° |
| 2026-04-18 05:08 | 39.81892 | -104.66051 | 5598 ft | 174 kts | 359° |
| 2026-04-18 05:08 | 39.83071 | -104.66039 | 5382 ft | 160 kts | 356° |
| 2026-04-18 05:08 | 39.84070 | -104.66056 | 5369 ft | 129 kts | 2° |
| 2026-04-18 05:09 | 39.84888 | -104.66047 | 5363 ft | 108 kts | 1° |
| 2026-04-18 05:09 | 39.85584 | -104.66034 | 5365 ft | 93 kts | 2° |
| 2026-04-18 05:09 | 39.86084 | -104.66021 | 5363 ft | 42 kts | 358° |